Сеймчан

Карта отелей и гостиниц, располагающихся рядом с аэропортом Сеймчан :

Сеймчан Магаданская область 62° 55' 11.2188" N, 152° 25' 20.1" E
Код аэродрома ИКАО
UHMS
Код аэродрома RU
УХМС
Координаты
N62.91978° E152.42225°
Превышение над уровнем моря
207
Основная полоса
18L/36R
Курс магнитный
179,1/359,1
Длина основной ВПП
1850
Ширина основной ВПП
50
Покрытие основной ВПП
Нетвёрдое (гравий)
Освещение ВПП
Нет
Тип: 
Аэродром
Класс аэродрома: 
Принадлежность: 
ГА
Статус: 
Действующий
Сайт: 
http://www.aerosever.ru/www/airports/air24/
E-mail аэродрома: 
Страна: 
Россия
Регион: 
Магаданская область
Город: 
Дополнительная информация: 
Оператор: ФКП «Аэропорты Севера» (с ноября 2012). Грузонапряженность до 25 тонн. ОПРС: 687-"ЛЦ".

Найти трансфер

С помощью этой формы Вы можете найти трансфер из аэропорта Сеймчан в город, аэропорт или вокзал:

Карта места

Javascript is required to view this map.

Погода в аэропортах:

Авиационная погода в Кадале

Регион: 
Погода METAR: 
UIAA 050800Z 29005MPS 2900 FU SCT030 22/13 Q1002 R29/CLRD70 NOSIG RMK QFE693/0925
Время наблюдения
2021-08-05T08:00:00Z
Температура C
22.0
Точка росы
13.0
Направление ветра
290
Скорость ветра (узлы)
10
Метео видимость
1.8
Явления погоды
FU
Условия полета
IFR
Аэропорт подробнее: 

Авиационная погода в Мирном

Регион: 
Погода METAR: 
UERR 050800Z 06003MPS 0600 HZ VV005 21/13 Q1005 R25/CLRD60 NOSIG RMK QBB150 QFE723/0964
Время наблюдения
2021-08-05T08:00:00Z
Температура C
21.0
Точка росы
13.0
Направление ветра
60
Скорость ветра (узлы)
6
Метео видимость
0.37
Явления погоды
HZ
Условия полета
LIFR
Аэропорт подробнее: 

Авиационная погода в аэропорту Новый

Регион: 
Погода METAR: 
UHHH 050800Z 05002MPS 010V090 9999 -SHRA VCTS SCT033CB 22/21 Q1002 R23R/290045 TEMPO 3100 -TSRA RMK QFE745/0994
Время наблюдения
2021-08-05T08:00:00Z
Температура C
22.0
Точка росы
21.0
Направление ветра
50
Скорость ветра (узлы)
4
Метео видимость
6.21
Явления погоды
-SHRA VCTS
Условия полета
VFR
Аэропорт подробнее: 

Авиационная погода в Архангельске

Регион: 
Погода METAR: 
ULAA 050800Z 29005MPS 250V330 9999 -SHRA BKN014CB 12/10 Q1014 R26/290060 NOSIG RMK QFE759/1012
Время наблюдения
2021-08-05T08:00:00Z
Температура C
12.0
Точка росы
10.0
Направление ветра
290
Скорость ветра (узлы)
10
Метео видимость
6.21
Явления погоды
-SHRA
Условия полета
MVFR
Аэропорт подробнее: